createdAt,value
2024-02-27T00:01:33.323Z,4.47
2024-02-27T00:04:02.857Z,4.60
2024-02-27T00:06:31.266Z,4.65
2024-02-27T00:09:04.113Z,3.90
2024-02-27T00:11:32.450Z,4.82
2024-02-27T00:14:02.113Z,4.45
2024-02-27T00:16:32.127Z,5.40
2024-02-27T00:19:00.299Z,3.53
2024-02-27T00:21:28.476Z,6.85
2024-02-27T00:23:56.630Z,4.22
2024-02-27T00:26:25.147Z,3.90
2024-02-27T00:28:53.435Z,4.70
2024-02-27T00:31:23.132Z,4.43
2024-02-27T00:33:52.114Z,4.38
2024-02-27T00:36:20.349Z,4.53
2024-02-27T00:38:48.433Z,3.65
2024-02-27T00:41:16.764Z,5.03
2024-02-27T00:43:45.273Z,4.47
2024-02-27T00:46:13.832Z,4.05
2024-02-27T00:48:43.545Z,4.00
2024-02-27T00:51:11.761Z,4.53
2024-02-27T00:53:41.077Z,4.15
2024-02-27T00:56:10.877Z,5.78
2024-02-27T00:58:41.937Z,3.38
2024-02-27T01:01:10.331Z,4.30
2024-02-27T01:03:38.598Z,3.63
2024-02-27T01:06:09.128Z,3.83
2024-02-27T01:08:37.350Z,4.85
2024-02-27T01:11:09.660Z,4.03
2024-02-27T01:13:37.952Z,4.15
2024-02-27T01:16:06.832Z,4.15
2024-02-27T01:18:35.247Z,4.20
2024-02-27T01:21:06.210Z,4.10
2024-02-27T01:23:36.284Z,5.20
2024-02-27T01:26:04.900Z,3.55
2024-02-27T01:28:33.027Z,4.07
2024-02-27T01:31:01.163Z,3.80
2024-02-27T01:33:29.432Z,4.90
2024-02-27T01:35:57.787Z,6.60
2024-02-27T01:38:26.043Z,4.75
2024-02-27T01:40:55.833Z,4.22
2024-02-27T01:43:25.073Z,5.72
2024-02-27T01:46:04.044Z,4.35
2024-02-27T01:48:32.456Z,4.88
2024-02-27T01:51:00.750Z,5.35
2024-02-27T01:53:29.704Z,4.60
2024-02-27T01:56:00.575Z,5.38
2024-02-27T01:58:28.933Z,5.00
2024-02-27T02:00:57.199Z,5.88
2024-02-27T02:03:27.591Z,4.85
2024-02-27T02:05:57.159Z,5.07
2024-02-27T02:08:25.500Z,5.65
2024-02-27T02:10:54.095Z,6.10
2024-02-27T02:13:23.780Z,6.20
2024-02-27T02:15:52.037Z,5.82
2024-02-27T02:18:20.311Z,5.85
2024-02-27T02:20:50.177Z,7.35
2024-02-27T02:23:18.341Z,5.03
2024-02-27T02:25:49.930Z,6.10
2024-02-27T02:28:18.061Z,7.28
2024-02-27T02:30:46.750Z,7.32
2024-02-27T02:33:15.092Z,6.20
2024-02-27T02:35:45.849Z,8.07
2024-02-27T02:38:15.275Z,6.55
2024-02-27T02:40:43.521Z,6.15
2024-02-27T02:43:12.117Z,8.00
2024-02-27T02:45:41.019Z,6.78
2024-02-27T02:48:12.296Z,7.97
2024-02-27T02:50:40.543Z,11.35
2024-02-27T02:53:08.830Z,7.60
2024-02-27T02:55:42.194Z,9.38
2024-02-27T02:58:10.465Z,9.25
2024-02-27T03:00:38.762Z,10.07
2024-02-27T03:03:07.749Z,9.40
2024-02-27T03:05:35.964Z,9.70
2024-02-27T03:08:04.786Z,9.80
2024-02-27T03:10:32.892Z,11.23
2024-02-27T03:13:02.446Z,10.82
2024-02-27T03:15:30.693Z,11.68
2024-02-27T03:18:01.912Z,10.30
2024-02-27T03:20:30.213Z,11.68
2024-02-27T03:22:58.343Z,13.27
2024-02-27T03:25:26.513Z,14.10
2024-02-27T03:27:54.594Z,15.23
2024-02-27T03:30:24.160Z,13.75
2024-02-27T03:32:52.412Z,13.55
2024-02-27T03:35:20.562Z,13.95
2024-02-27T03:37:48.644Z,15.18
2024-02-27T03:40:18.042Z,15.02
2024-02-27T03:42:46.270Z,14.73
2024-02-27T03:45:14.550Z,19.00
2024-02-27T03:47:45.967Z,16.90
2024-02-27T03:50:14.263Z,17.73
2024-02-27T03:52:44.063Z,20.73
2024-02-27T03:55:12.345Z,19.30
2024-02-27T03:57:40.637Z,18.17
2024-02-27T04:00:11.015Z,19.05
2024-02-27T04:02:39.182Z,22.75
2024-02-27T04:05:11.542Z,25.08
2024-02-27T04:07:39.752Z,24.42
2024-02-27T04:10:09.406Z,25.35
2024-02-27T04:12:37.681Z,24.13
2024-02-27T04:15:07.669Z,25.38
2024-02-27T04:20:11.237Z,31.42
2024-02-27T04:22:39.495Z,30.38
2024-02-27T04:25:08.355Z,30.63
2024-02-27T04:27:36.828Z,32.28
2024-02-27T04:30:06.620Z,36.58
2024-02-27T04:32:34.980Z,32.83
2024-02-27T04:35:03.520Z,30.40
2024-02-27T04:37:33.686Z,29.95
2024-02-27T04:40:05.968Z,37.40
2024-02-27T04:42:34.315Z,34.10
2024-02-27T04:45:02.699Z,36.17
2024-02-27T04:47:30.944Z,35.53
2024-02-27T04:49:59.065Z,33.40
2024-02-27T04:52:27.240Z,31.10
2024-02-27T04:54:57.371Z,32.45
2024-02-27T04:57:25.713Z,33.67
2024-02-27T04:59:55.592Z,32.75
2024-02-27T05:02:23.978Z,33.28
2024-02-27T05:04:52.469Z,33.65
2024-02-27T05:07:20.692Z,29.73
2024-02-27T05:09:49.650Z,29.42
2024-02-27T05:12:19.368Z,32.20
2024-02-27T05:14:48.217Z,29.38
2024-02-27T05:17:16.444Z,31.05
2024-02-27T05:19:44.650Z,30.88
2024-02-27T05:22:12.865Z,28.60
2024-02-27T05:24:41.071Z,30.48
2024-02-27T05:27:09.303Z,30.63
2024-02-27T05:29:38.811Z,33.55
2024-02-27T05:32:09.036Z,33.75
2024-02-27T05:34:37.323Z,32.20
2024-02-27T05:37:05.521Z,31.27
2024-02-27T05:39:33.789Z,37.33
2024-02-27T05:42:01.976Z,33.72
2024-02-27T05:44:30.215Z,39.08
2024-02-27T05:46:59.724Z,40.83
2024-02-27T05:49:27.971Z,43.35
2024-02-27T05:51:56.082Z,40.92
2024-02-27T05:54:26.060Z,46.72
2024-02-27T05:56:54.614Z,41.28
2024-02-27T05:59:22.840Z,35.97
2024-02-27T06:01:50.930Z,42.40
2024-02-27T06:04:20.472Z,51.67
2024-02-27T06:06:48.820Z,52.72
2024-02-27T06:09:16.991Z,59.42
2024-02-27T06:11:45.215Z,55.47
2024-02-27T06:14:14.403Z,39.40
2024-02-27T06:16:42.691Z,40.58
2024-02-27T06:19:11.362Z,59.80
2024-02-27T06:21:58.178Z,39.50
2024-02-27T06:24:28.382Z,37.10
2024-02-27T06:26:56.565Z,44.17
2024-02-27T06:29:24.806Z,47.85
2024-02-27T06:31:53.019Z,45.17
2024-02-27T06:34:21.251Z,48.75
2024-02-27T06:36:51.183Z,43.00
2024-02-27T06:39:19.303Z,44.67
2024-02-27T06:41:50.052Z,39.40
2024-02-27T06:44:18.803Z,34.67
2024-02-27T06:46:47.375Z,60.78
2024-02-27T06:49:22.541Z,44.55
2024-02-27T06:51:53.181Z,43.13
2024-02-27T06:54:21.812Z,45.45
2024-02-27T06:56:50.878Z,42.22
2024-02-27T06:59:19.282Z,34.10
2024-02-27T07:01:47.468Z,39.45
2024-02-27T07:04:17.882Z,34.55
2024-02-27T07:06:46.694Z,38.00
2024-02-27T07:09:16.382Z,32.05
2024-02-27T07:11:44.534Z,49.75
2024-02-27T07:14:13.802Z,41.65
2024-02-27T07:16:42.103Z,37.90
2024-02-27T07:19:10.317Z,58.00
2024-02-27T07:21:38.677Z,31.52
2024-02-27T07:24:07.740Z,37.75
2024-02-27T07:26:40.220Z,37.22
2024-02-27T07:29:08.488Z,36.05
2024-02-27T07:31:39.745Z,31.65
2024-02-27T07:34:08.198Z,37.45
2024-02-27T07:36:36.512Z,31.95
2024-02-27T07:39:04.858Z,30.30
2024-02-27T07:41:33.081Z,30.63
2024-02-27T07:44:03.959Z,35.85
2024-02-27T07:46:34.656Z,40.35
2024-02-27T07:49:02.836Z,31.45
2024-02-27T07:51:33.994Z,43.58
2024-02-27T07:54:04.441Z,33.92
2024-02-27T07:56:33.740Z,44.42
2024-02-27T07:59:03.605Z,42.72
2024-02-27T08:01:32.105Z,41.67
2024-02-27T08:04:00.545Z,28.70
2024-02-27T08:06:29.440Z,25.92
2024-02-27T08:08:57.972Z,34.60
2024-02-27T08:11:27.413Z,51.60
2024-02-27T08:13:55.761Z,35.97
2024-02-27T08:16:25.261Z,39.45
2024-02-27T08:18:53.603Z,38.22
2024-02-27T08:21:22.062Z,30.38
2024-02-27T08:23:50.372Z,26.85
2024-02-27T08:26:18.485Z,32.05
2024-02-27T08:28:46.687Z,27.45
2024-02-27T08:31:15.482Z,36.55
2024-02-27T08:33:45.218Z,36.72
2024-02-27T08:36:13.748Z,40.75
2024-02-27T08:38:44.839Z,33.45
2024-02-27T08:41:13.226Z,30.08
2024-02-27T08:43:44.159Z,42.08
2024-02-27T08:46:17.982Z,38.65
2024-02-27T08:48:47.911Z,31.08
2024-02-27T08:51:16.237Z,28.80
2024-02-27T08:53:44.444Z,27.80
2024-02-27T08:56:12.543Z,26.35
2024-02-27T08:58:40.735Z,32.13
2024-02-27T09:01:08.995Z,31.48
2024-02-27T09:03:37.203Z,25.50
2024-02-27T09:06:10.590Z,27.52
2024-02-27T09:08:38.805Z,27.10
2024-02-27T09:11:07.055Z,38.25
2024-02-27T09:13:35.790Z,39.70
2024-02-27T09:16:04.027Z,42.88
2024-02-27T09:18:32.289Z,26.75
2024-02-27T09:21:01.879Z,25.98
2024-02-27T09:23:31.387Z,29.40
2024-02-27T09:25:59.645Z,24.17
2024-02-27T09:28:27.849Z,29.13
2024-02-27T09:31:00.748Z,22.75
2024-02-27T09:33:29.018Z,42.80
2024-02-27T09:35:57.385Z,34.17
2024-02-27T09:38:25.512Z,34.63
2024-02-27T09:40:55.503Z,54.03
2024-02-27T09:43:25.456Z,36.15
2024-02-27T09:45:53.922Z,28.58
2024-02-27T09:48:29.885Z,31.75
2024-02-27T09:50:59.851Z,22.98
2024-02-27T09:53:28.187Z,19.25
2024-02-27T09:55:57.870Z,21.15
2024-02-27T09:58:27.111Z,18.13
2024-02-27T10:01:07.212Z,21.10
2024-02-27T10:03:37.873Z,19.30
2024-02-27T10:06:08.811Z,19.42
2024-02-27T10:08:38.918Z,16.95
2024-02-27T10:11:12.083Z,18.77
2024-02-27T10:13:40.353Z,17.08
2024-02-27T10:16:08.657Z,19.67
2024-02-27T10:18:37.570Z,20.83
2024-02-27T10:21:06.524Z,18.55
2024-02-27T10:23:36.950Z,19.15
2024-02-27T10:26:11.460Z,19.77
2024-02-27T10:28:39.985Z,18.42
2024-02-27T10:31:10.841Z,20.05
2024-02-27T10:33:40.290Z,15.73
2024-02-27T10:36:10.469Z,16.95
2024-02-27T10:38:38.880Z,16.67
2024-02-27T10:41:07.092Z,15.55
2024-02-27T10:43:38.378Z,18.40
2024-02-27T10:46:07.650Z,18.98
2024-02-27T10:48:41.870Z,18.40
2024-02-27T10:51:14.672Z,24.58
2024-02-27T10:53:44.339Z,14.63
2024-02-27T10:56:12.559Z,15.90
2024-02-27T10:58:42.773Z,14.60
2024-02-27T11:01:11.857Z,14.35
2024-02-27T11:03:43.193Z,15.07
2024-02-27T11:06:16.237Z,14.63
2024-02-27T11:08:48.059Z,15.30
2024-02-27T11:11:16.856Z,15.35
2024-02-27T11:13:50.870Z,14.45
2024-02-27T11:16:23.199Z,13.18
2024-02-27T11:18:55.780Z,15.45
2024-02-27T11:21:24.848Z,16.58
2024-02-27T11:23:53.518Z,14.65
2024-02-27T11:26:22.178Z,19.05
2024-02-27T11:28:52.623Z,19.15
2024-02-27T11:31:27.679Z,12.98
2024-02-27T11:33:58.545Z,15.40
2024-02-27T11:36:27.929Z,15.10
2024-02-27T11:38:59.141Z,12.10
2024-02-27T11:41:29.120Z,14.05
2024-02-27T11:44:01.557Z,17.95
2024-02-27T11:46:40.304Z,15.70
2024-02-27T11:49:10.426Z,23.40
2024-02-27T11:51:39.671Z,13.75
2024-02-27T11:54:13.920Z,13.02
2024-02-27T11:56:46.653Z,13.55
2024-02-27T11:59:20.159Z,13.27
2024-02-27T12:02:02.136Z,13.77
2024-02-27T12:04:30.511Z,14.88
2024-02-27T12:06:58.996Z,14.50
2024-02-27T12:09:29.260Z,13.68
2024-02-27T12:11:58.302Z,13.25
2024-02-27T12:14:28.150Z,15.77
2024-02-27T12:16:56.287Z,14.48
2024-02-27T12:19:24.508Z,14.13
2024-02-27T12:21:52.780Z,13.73
2024-02-27T12:24:21.644Z,15.45
2024-02-27T12:26:50.923Z,16.25
2024-02-27T12:29:19.415Z,14.07
2024-02-27T12:31:50.044Z,11.57
2024-02-27T12:34:18.291Z,14.07
2024-02-27T12:36:47.350Z,15.20
2024-02-27T12:39:16.333Z,15.40
2024-02-27T12:41:44.656Z,14.40
2024-02-27T12:44:12.808Z,11.40
2024-02-27T12:46:41.030Z,13.55
2024-02-27T12:49:11.274Z,13.38
2024-02-27T12:51:39.985Z,11.07
2024-02-27T12:54:08.289Z,13.15
2024-02-27T12:56:39.457Z,12.38
2024-02-27T12:59:10.839Z,11.00
2024-02-27T13:01:41.052Z,12.18
2024-02-27T13:04:11.129Z,11.63
2024-02-27T13:06:39.584Z,13.20
2024-02-27T13:09:07.900Z,11.82
2024-02-27T13:11:36.139Z,11.50
2024-02-27T13:14:04.357Z,15.15
2024-02-27T13:16:32.744Z,12.73
2024-02-27T13:19:01.286Z,14.35
2024-02-27T13:21:31.349Z,11.85
2024-02-27T13:24:04.076Z,12.07
2024-02-27T13:26:32.739Z,14.00
2024-02-27T13:29:00.862Z,13.63
2024-02-27T13:31:29.586Z,13.45
2024-02-27T13:33:57.823Z,13.95
2024-02-27T13:36:26.134Z,17.70
2024-02-27T13:38:55.690Z,16.00
2024-02-27T13:41:24.079Z,12.18
2024-02-27T13:43:52.578Z,10.48
2024-02-27T13:46:20.835Z,13.68
2024-02-27T13:48:49.072Z,14.70
2024-02-27T13:51:17.949Z,11.52
2024-02-27T13:53:46.278Z,13.35
2024-02-27T13:56:15.890Z,12.48
2024-02-27T13:58:44.143Z,11.48
2024-02-27T14:01:12.348Z,13.05
2024-02-27T14:03:43.694Z,12.93
2024-02-27T14:06:12.167Z,14.15
2024-02-27T14:08:40.540Z,12.68
2024-02-27T14:11:10.035Z,11.20
2024-02-27T14:13:41.402Z,13.52
2024-02-27T14:16:09.773Z,15.48
2024-02-27T14:18:38.077Z,13.45
2024-02-27T14:21:07.085Z,12.52
2024-02-27T14:23:35.218Z,13.05
2024-02-27T14:26:03.327Z,12.45
2024-02-27T14:28:31.437Z,11.73
2024-02-27T15:16:22.209Z,13.57
2024-02-27T15:18:51.910Z,12.45
2024-02-27T15:21:21.739Z,13.82
2024-02-27T15:23:51.957Z,13.60
2024-02-27T15:26:20.791Z,13.95
2024-02-27T15:28:49.432Z,14.27
2024-02-27T15:31:18.813Z,12.73
2024-02-27T15:33:49.193Z,13.63
2024-02-27T15:36:18.060Z,15.23
2024-02-27T15:38:46.877Z,15.35
2024-02-27T15:41:15.732Z,14.90
2024-02-27T15:43:44.560Z,14.10
2024-02-27T15:46:13.518Z,15.38
2024-02-27T15:48:43.343Z,15.63
2024-02-27T15:51:14.124Z,15.13
2024-02-27T15:53:44.494Z,18.23
2024-02-27T15:56:13.301Z,14.02
2024-02-27T15:58:41.957Z,14.45
2024-02-27T16:01:10.938Z,17.25
2024-02-27T16:03:58.457Z,16.65
2024-02-27T16:06:34.946Z,16.30
2024-02-27T16:09:03.916Z,13.23
2024-02-27T16:11:32.860Z,16.48
2024-02-27T16:14:01.616Z,16.55
2024-02-27T16:16:30.262Z,15.98
2024-02-27T16:18:58.998Z,18.15
2024-02-27T16:21:41.003Z,14.77
2024-02-27T16:24:10.605Z,15.70
2024-02-27T16:26:40.381Z,14.82
2024-02-27T16:29:09.197Z,15.23
2024-02-27T16:31:37.872Z,13.98
2024-02-27T16:34:06.641Z,14.32
2024-02-27T16:36:36.982Z,16.15
2024-02-27T16:39:06.519Z,13.88
2024-02-27T16:41:35.331Z,16.50
2024-02-27T16:44:04.921Z,12.98
2024-02-27T16:46:33.519Z,17.77
2024-02-27T16:49:02.249Z,16.00
2024-02-27T16:51:31.019Z,13.60
2024-02-27T16:54:01.038Z,15.02
2024-02-27T16:56:30.043Z,15.68
2024-02-27T16:59:01.069Z,14.07
2024-02-27T17:01:29.821Z,13.43
2024-02-27T17:03:58.828Z,15.18
2024-02-27T17:06:28.176Z,15.45
2024-02-27T17:08:56.823Z,15.93
2024-02-27T17:11:27.370Z,15.32
2024-02-27T17:13:56.054Z,16.13
2024-02-27T17:16:24.805Z,17.67
2024-02-27T17:18:53.648Z,15.55
2024-02-27T17:21:22.616Z,17.02
2024-02-27T17:23:51.327Z,17.90
2024-02-27T17:26:20.027Z,16.65
2024-02-27T17:28:50.003Z,17.00
2024-02-27T17:31:20.146Z,13.15
2024-02-27T17:33:49.238Z,15.55
2024-02-27T17:36:18.706Z,18.02
2024-02-27T17:38:47.450Z,16.00
2024-02-27T17:41:17.192Z,15.05
2024-02-27T17:43:45.800Z,16.13
2024-02-27T17:46:16.231Z,18.33
2024-02-27T17:48:45.126Z,16.80
2024-02-27T17:51:13.847Z,19.35
2024-02-27T17:53:42.535Z,16.23
2024-02-27T17:56:14.071Z,15.55
2024-02-27T17:58:42.951Z,21.13
2024-02-27T18:01:11.631Z,18.98
2024-02-27T18:03:41.850Z,19.08
2024-02-27T18:06:10.651Z,19.92
2024-02-27T18:08:39.415Z,21.20
2024-02-27T18:11:08.117Z,17.85
2024-02-27T18:13:36.772Z,20.17
2024-02-27T18:16:05.817Z,23.55
2024-02-27T18:18:34.610Z,20.20
2024-02-27T18:21:05.085Z,17.40
2024-02-27T18:23:33.745Z,18.73
2024-02-27T18:26:02.464Z,16.45
2024-02-27T18:28:31.163Z,19.00
2024-02-27T18:31:00.079Z,17.13
2024-02-27T18:33:28.812Z,18.60
2024-02-27T18:35:57.670Z,19.75
2024-02-27T18:38:28.835Z,17.30
2024-02-27T18:40:58.888Z,17.30
2024-02-27T18:43:28.231Z,18.42
2024-02-27T18:45:56.936Z,19.83
2024-02-27T18:48:25.889Z,20.25
2024-02-27T18:50:56.378Z,17.55
2024-02-27T18:53:26.526Z,17.92
2024-02-27T18:55:55.878Z,19.98
2024-02-27T18:58:24.621Z,15.10
2024-02-27T19:00:53.362Z,19.98
2024-02-27T19:03:25.210Z,17.08
2024-02-27T19:05:53.955Z,19.05
2024-02-27T19:08:23.998Z,20.95
2024-02-27T19:10:55.936Z,21.48
2024-02-27T19:13:26.645Z,19.05
2024-02-27T19:15:56.225Z,19.88
2024-02-27T19:18:24.969Z,26.98
2024-02-27T19:20:54.456Z,23.60
2024-02-27T19:23:23.150Z,19.60
2024-02-27T19:25:51.721Z,19.75
2024-02-27T19:28:21.714Z,18.80
2024-02-27T19:30:50.317Z,20.55
2024-02-27T19:33:26.281Z,17.42
2024-02-27T19:35:55.119Z,17.27
2024-02-27T19:38:23.880Z,21.73
2024-02-27T19:40:55.538Z,17.98
2024-02-27T19:43:25.785Z,18.00
2024-02-27T19:45:54.565Z,16.92
2024-02-27T19:48:23.662Z,17.02
2024-02-27T19:50:57.692Z,19.40
2024-02-27T19:53:26.427Z,16.73
2024-02-27T19:55:55.099Z,16.90
2024-02-27T19:58:25.231Z,17.17
2024-02-27T20:00:54.234Z,19.45
2024-02-27T20:03:22.983Z,18.98
2024-02-27T20:05:55.838Z,17.80
2024-02-27T20:08:29.486Z,19.65
2024-02-27T20:11:01.628Z,18.70
2024-02-27T20:13:35.934Z,18.23
2024-02-27T20:16:09.811Z,21.70
2024-02-27T20:18:48.760Z,16.85
2024-02-27T20:21:19.392Z,19.27
2024-02-27T20:23:52.158Z,16.80
2024-02-27T20:26:26.587Z,18.98
2024-02-27T20:29:11.179Z,19.27
2024-02-27T20:31:56.897Z,21.80
2024-02-27T20:34:33.972Z,17.73
2024-02-27T20:37:05.791Z,18.13
2024-02-27T20:39:34.222Z,17.23
2024-02-27T20:42:05.447Z,20.15
2024-02-27T20:44:35.057Z,18.95
2024-02-27T20:47:03.167Z,18.55
2024-02-27T20:49:33.097Z,19.45
2024-02-27T20:52:02.528Z,18.50
2024-02-27T20:54:31.661Z,18.13
2024-02-27T20:56:59.881Z,19.45
2024-02-27T20:59:29.897Z,16.55
2024-02-27T21:02:00.096Z,18.38
2024-02-27T21:04:28.429Z,19.27
2024-02-27T21:06:59.638Z,17.52
2024-02-27T21:09:27.835Z,18.13
2024-02-27T21:11:56.215Z,18.60
2024-02-27T21:14:24.546Z,17.67
2024-02-27T21:16:52.881Z,19.98
2024-02-27T21:19:23.177Z,19.33
2024-02-27T21:21:51.615Z,18.10
2024-02-27T21:24:23.493Z,20.98
2024-02-27T21:26:51.653Z,19.02
2024-02-27T21:29:19.843Z,18.48
2024-02-27T21:31:48.736Z,17.67
2024-02-27T21:34:16.940Z,19.77
2024-02-27T21:36:46.535Z,19.15
2024-02-27T21:39:14.873Z,18.65
2024-02-27T21:41:43.069Z,17.35
2024-02-27T21:44:11.182Z,18.95
2024-02-27T21:46:39.544Z,19.85
2024-02-27T21:49:07.746Z,19.60
2024-02-27T21:51:41.309Z,17.88
2024-02-27T21:54:18.544Z,17.98
2024-02-27T21:56:47.956Z,19.88
2024-02-27T21:59:17.440Z,19.13
2024-02-27T22:01:45.566Z,20.55
2024-02-27T22:04:13.802Z,21.90
2024-02-27T22:06:41.989Z,22.40
2024-02-27T22:09:11.497Z,18.80
2024-02-27T22:11:42.432Z,22.25
2024-02-27T22:14:11.302Z,20.75
2024-02-27T22:16:39.561Z,20.33
2024-02-27T22:19:07.855Z,19.65
2024-02-27T22:21:36.061Z,23.73
2024-02-27T22:24:04.422Z,21.23
2024-02-27T22:26:32.543Z,21.58
2024-02-27T22:29:02.074Z,18.45
2024-02-27T22:31:30.203Z,20.92
2024-02-27T22:33:58.353Z,21.25
2024-02-27T22:36:26.588Z,19.38
2024-02-27T22:38:54.688Z,19.90
2024-02-27T22:41:22.889Z,20.70
2024-02-27T22:43:50.984Z,21.33
2024-02-27T22:46:25.563Z,20.50
2024-02-27T22:48:54.020Z,21.67
2024-02-27T22:51:22.327Z,20.95
2024-02-27T22:53:50.498Z,22.13
2024-02-27T22:56:18.599Z,20.77
2024-02-27T22:58:46.707Z,17.88
2024-02-27T23:01:14.984Z,21.00
2024-02-27T23:03:47.562Z,23.15
2024-02-27T23:06:15.780Z,22.63
2024-02-27T23:08:44.036Z,20.95
2024-02-27T23:11:12.594Z,23.67
2024-02-27T23:13:40.467Z,20.30
2024-02-27T23:16:08.775Z,21.75
2024-02-27T23:18:36.901Z,25.33
2024-02-27T23:21:06.684Z,24.48
2024-02-27T23:23:34.892Z,21.08
2024-02-27T23:26:03.807Z,24.45
2024-02-27T23:28:31.920Z,24.50
2024-02-27T23:31:00.137Z,23.65
2024-02-27T23:33:28.789Z,23.88
2024-02-27T23:35:57.137Z,25.45
2024-02-27T23:38:26.771Z,24.85
2024-02-27T23:40:57.981Z,25.42
2024-02-27T23:43:26.182Z,23.45
2024-02-27T23:45:54.442Z,22.52
2024-02-27T23:48:22.722Z,23.27
2024-02-27T23:50:52.193Z,23.23
2024-02-27T23:53:21.764Z,24.88
2024-02-27T23:55:51.438Z,24.30
2024-02-27T23:58:19.626Z,23.50
